createdAt,value
2017-11-27T00:01:24.569Z,5.30
2017-11-27T00:03:53.820Z,5.30
2017-11-27T00:06:23.048Z,5.30
2017-11-27T00:08:52.289Z,5.20
2017-11-27T00:11:22.413Z,5.10
2017-11-27T00:13:52.434Z,5.20
2017-11-27T00:16:21.676Z,5.20
2017-11-27T00:18:50.921Z,5.20
2017-11-27T00:21:20.158Z,5.20
2017-11-27T00:23:49.422Z,5.10
2017-11-27T00:26:18.637Z,5.20
2017-11-27T00:28:47.885Z,5.10
2017-11-27T00:31:17.144Z,5.10
2017-11-27T00:33:46.418Z,5.00
2017-11-27T00:36:15.655Z,4.90
2017-11-27T00:38:45.677Z,5.00
2017-11-27T00:41:14.916Z,5.00
2017-11-27T00:43:44.163Z,4.90
2017-11-27T00:46:13.428Z,5.00
2017-11-27T00:48:43.452Z,5.00
2017-11-27T00:51:13.473Z,5.10
2017-11-27T00:53:42.717Z,5.10
2017-11-27T00:56:28.580Z,5.10
2017-11-27T00:58:57.854Z,5.10
2017-11-27T01:01:27.092Z,5.10
2017-11-27T01:03:56.333Z,5.10
2017-11-27T01:06:25.596Z,5.10
2017-11-27T01:08:54.824Z,5.10
2017-11-27T01:11:24.061Z,5.10
2017-11-27T01:13:54.097Z,5.10
2017-11-27T01:16:23.333Z,5.10
2017-11-27T01:18:52.586Z,5.10
2017-11-27T01:21:23.186Z,5.10
2017-11-27T01:23:52.447Z,5.10
2017-11-27T01:26:21.677Z,5.00
2017-11-27T01:28:50.922Z,5.10
2017-11-27T01:31:21.181Z,5.00
2017-11-27T01:33:50.395Z,5.00
2017-11-27T01:36:19.629Z,5.00
2017-11-27T01:38:48.901Z,5.00
2017-11-27T01:41:18.129Z,5.10
2017-11-27T01:43:48.146Z,4.90
2017-11-27T01:46:18.195Z,4.90
2017-11-27T01:48:47.455Z,4.90
2017-11-27T01:51:16.680Z,4.90
2017-11-27T01:53:45.912Z,5.00
2017-11-27T01:56:15.196Z,4.90
2017-11-27T01:58:44.437Z,4.80
2017-11-27T02:01:36.736Z,4.80
2017-11-27T02:04:06.072Z,4.80
2017-11-27T02:06:37.100Z,4.80
2017-11-27T02:09:07.105Z,4.70
2017-11-27T02:11:36.364Z,4.70
2017-11-27T02:14:05.581Z,4.60
2017-11-27T02:16:34.812Z,4.60
2017-11-27T02:19:04.069Z,4.60
2017-11-27T02:21:33.304Z,4.60
2017-11-27T02:24:02.524Z,4.60
2017-11-27T02:26:32.545Z,4.60
2017-11-27T02:29:02.544Z,4.50
2017-11-27T02:31:31.808Z,4.50
2017-11-27T02:34:01.041Z,4.50
2017-11-27T02:36:30.280Z,4.50
2017-11-27T02:38:59.624Z,4.50
2017-11-27T02:41:28.861Z,4.50
2017-11-27T02:43:58.076Z,4.50
2017-11-27T02:46:27.328Z,4.50
2017-11-27T02:48:56.562Z,4.50
2017-11-27T02:51:26.572Z,4.60
2017-11-27T02:53:56.572Z,4.60
2017-11-27T02:56:25.817Z,4.60
2017-11-27T02:58:55.068Z,4.50
2017-11-27T03:01:24.292Z,4.60
2017-11-27T03:03:54.314Z,4.50
2017-11-27T03:06:24.304Z,4.50
2017-11-27T03:08:53.563Z,4.50
2017-11-27T03:11:22.792Z,4.50
2017-11-27T03:13:52.012Z,4.50
2017-11-27T03:16:21.268Z,4.50
2017-11-27T03:18:50.500Z,4.50
2017-11-27T03:21:19.728Z,4.50
2017-11-27T03:23:49.192Z,4.50
2017-11-27T03:26:18.424Z,4.40
2017-11-27T03:28:48.440Z,4.40
2017-11-27T03:31:18.439Z,4.40
2017-11-27T03:33:47.695Z,4.40
2017-11-27T03:36:16.912Z,4.30
2017-11-27T03:38:46.236Z,4.30
2017-11-27T03:41:15.489Z,4.40
2017-11-27T03:43:44.747Z,4.30
2017-11-27T03:46:13.973Z,4.30
2017-11-27T03:48:43.221Z,4.40
2017-11-27T03:51:12.460Z,4.40
2017-11-27T03:53:42.481Z,4.40
2017-11-27T03:56:12.471Z,4.50
2017-11-27T03:58:41.752Z,4.40
2017-11-27T04:01:10.980Z,4.50
2017-11-27T04:03:40.211Z,4.50
2017-11-27T04:06:09.461Z,4.40
2017-11-27T04:08:38.692Z,4.40
2017-11-27T04:11:08.714Z,4.40
2017-11-27T04:13:38.701Z,4.40
2017-11-27T04:16:08.042Z,4.40
2017-11-27T04:18:37.233Z,4.40
2017-11-27T04:21:07.385Z,4.40
2017-11-27T04:23:36.614Z,4.40
2017-11-27T04:26:05.832Z,4.30
2017-11-27T04:28:35.096Z,4.20
2017-11-27T04:31:04.317Z,4.10
2017-11-27T04:33:33.539Z,4.00
2017-11-27T04:36:03.560Z,4.00
2017-11-27T04:38:33.681Z,4.00
2017-11-27T04:41:02.922Z,3.90
2017-11-27T04:43:32.145Z,4.00
2017-11-27T04:46:01.396Z,3.90
2017-11-27T04:48:30.627Z,3.90
2017-11-27T04:50:59.865Z,3.90
2017-11-27T04:53:29.097Z,3.80
2017-11-27T04:55:58.340Z,3.90
2017-11-27T04:58:27.585Z,3.90
2017-11-27T05:00:56.849Z,4.00
2017-11-27T05:03:27.082Z,4.00
2017-11-27T05:05:56.352Z,4.10
2017-11-27T05:08:25.611Z,4.10
2017-11-27T05:10:56.264Z,4.10
2017-11-27T05:13:25.488Z,4.10
2017-11-27T05:15:54.716Z,4.10
2017-11-27T05:18:23.980Z,4.10
2017-11-27T05:20:53.209Z,4.20
2017-11-27T05:23:22.444Z,4.30
2017-11-27T05:25:51.705Z,4.40
2017-11-27T05:28:20.929Z,4.50
2017-11-27T05:30:50.951Z,4.70
2017-11-27T05:33:20.950Z,4.80
2017-11-27T05:35:50.186Z,4.70
2017-11-27T05:38:19.545Z,4.80
2017-11-27T05:40:48.777Z,4.90
2017-11-27T05:43:18.013Z,4.90
2017-11-27T05:45:47.264Z,4.80
2017-11-27T05:48:17.249Z,4.80
2017-11-27T05:50:46.520Z,4.80
2017-11-27T05:53:15.741Z,4.60
2017-11-27T05:55:44.970Z,4.70
2017-11-27T05:58:14.977Z,4.70
2017-11-27T06:00:44.235Z,4.70
2017-11-27T06:03:13.460Z,4.70
2017-11-27T06:05:42.685Z,4.70
2017-11-27T06:08:12.698Z,4.80
2017-11-27T06:10:41.939Z,4.80
2017-11-27T06:13:11.171Z,4.80
2017-11-27T06:15:40.400Z,4.80
2017-11-27T06:18:09.658Z,4.80
2017-11-27T06:20:38.881Z,4.80
2017-11-27T06:23:08.100Z,4.80
2017-11-27T06:25:37.362Z,4.80
2017-11-27T06:28:06.589Z,4.90
2017-11-27T06:30:35.844Z,4.90
2017-11-27T06:33:05.104Z,5.10
2017-11-27T06:35:35.099Z,5.10
2017-11-27T06:38:04.444Z,5.10
2017-11-27T06:40:33.664Z,5.20
2017-11-27T06:43:02.894Z,5.20
2017-11-27T06:45:32.212Z,5.20
2017-11-27T06:48:01.436Z,5.20
2017-11-27T06:50:30.672Z,5.20
2017-11-27T06:52:59.920Z,5.20
2017-11-27T06:55:29.909Z,5.20
2017-11-27T06:57:59.168Z,5.20
2017-11-27T07:00:28.391Z,5.20
2017-11-27T07:02:57.612Z,5.20
2017-11-27T07:05:26.871Z,5.10
2017-11-27T07:07:56.104Z,5.00
2017-11-27T07:10:25.373Z,5.00
2017-11-27T07:12:54.590Z,5.00
2017-11-27T07:15:23.812Z,4.90
2017-11-27T07:17:53.060Z,4.90
2017-11-27T07:20:22.287Z,4.90
2017-11-27T07:22:51.508Z,4.90
2017-11-27T07:25:20.768Z,4.90
2017-11-27T07:27:49.998Z,4.80
2017-11-27T07:30:19.217Z,4.80
2017-11-27T07:32:48.484Z,4.80
2017-11-27T07:35:17.745Z,4.60
2017-11-27T07:37:52.652Z,4.60
2017-11-27T07:40:21.896Z,4.60
2017-11-27T07:42:51.265Z,4.50
2017-11-27T07:45:20.612Z,4.50
2017-11-27T07:47:49.832Z,4.50
2017-11-27T07:50:19.097Z,4.50
2017-11-27T07:52:48.340Z,4.60
2017-11-27T07:55:17.569Z,4.50
2017-11-27T07:57:46.949Z,4.50
2017-11-27T08:00:16.217Z,4.50
2017-11-27T08:02:45.445Z,4.60
2017-11-27T08:05:14.676Z,4.60
2017-11-27T08:07:44.704Z,4.70
2017-11-27T08:10:13.945Z,4.70
2017-11-27T08:12:43.177Z,4.70
2017-11-27T08:15:13.208Z,4.80
2017-11-27T08:17:43.203Z,4.90
2017-11-27T08:20:12.484Z,4.90
2017-11-27T08:22:41.719Z,4.80
2017-11-27T08:25:10.981Z,4.90
2017-11-27T08:27:40.261Z,5.00
2017-11-27T08:30:10.273Z,5.00
2017-11-27T08:32:39.520Z,5.00
2017-11-27T08:35:08.769Z,5.00
2017-11-27T08:37:37.995Z,5.00
2017-11-27T08:40:07.265Z,5.00
2017-11-27T08:42:36.529Z,5.00
2017-11-27T08:45:05.773Z,5.10
2017-11-27T08:47:35.061Z,5.20
2017-11-27T08:50:04.297Z,5.10
2017-11-27T08:52:33.538Z,5.20
2017-11-27T08:55:03.576Z,5.20
2017-11-27T08:57:32.808Z,5.20
2017-11-27T09:00:02.288Z,5.30
2017-11-27T09:02:31.627Z,5.20
2017-11-27T09:05:00.891Z,5.30
2017-11-27T09:07:30.100Z,5.30
2017-11-27T09:09:59.360Z,5.20
2017-11-27T09:12:29.349Z,5.40
2017-11-27T09:14:58.588Z,5.40
2017-11-27T09:17:27.846Z,5.50
2017-11-27T09:19:57.082Z,5.60
2017-11-27T09:22:26.308Z,5.60
2017-11-27T09:24:55.562Z,5.60
2017-11-27T09:27:24.800Z,5.60
2017-11-27T09:29:54.037Z,5.70
2017-11-27T09:32:23.312Z,5.80
2017-11-27T09:34:52.580Z,5.80
2017-11-27T09:37:21.884Z,5.80
2017-11-27T09:39:51.110Z,5.80
2017-11-27T09:42:20.328Z,5.90
2017-11-27T09:44:49.693Z,5.90
2017-11-27T09:47:18.904Z,6.00
2017-11-27T09:49:48.128Z,6.00
2017-11-27T09:52:17.392Z,6.10
2017-11-27T09:54:46.627Z,6.20
2017-11-27T09:57:15.910Z,6.30
2017-11-27T09:59:45.218Z,6.30
2017-11-27T10:02:14.434Z,6.40
2017-11-27T10:04:43.698Z,6.50
2017-11-27T10:07:12.971Z,6.50
2017-11-27T10:09:42.268Z,6.60
2017-11-27T10:12:12.344Z,6.60
2017-11-27T10:14:41.643Z,6.60
2017-11-27T10:17:10.840Z,6.70
2017-11-27T10:19:40.113Z,6.60
2017-11-27T10:22:09.449Z,6.60
2017-11-27T10:24:38.685Z,6.60
2017-11-27T10:27:08.064Z,6.70
2017-11-27T10:29:38.122Z,6.70
2017-11-27T10:32:07.472Z,6.80
2017-11-27T10:34:36.702Z,6.70
2017-11-27T10:37:06.446Z,6.80
2017-11-27T10:39:35.697Z,6.90
2017-11-27T10:42:13.320Z,6.90
2017-11-27T10:44:43.414Z,6.90
2017-11-27T10:47:12.617Z,6.90
2017-11-27T10:49:41.958Z,7.00
2017-11-27T10:52:12.007Z,7.00
2017-11-27T10:54:41.208Z,7.00
2017-11-27T10:57:10.448Z,6.80
2017-11-27T10:59:39.725Z,6.90
2017-11-27T11:02:09.141Z,7.00
2017-11-27T11:04:38.640Z,7.10
2017-11-27T11:07:07.890Z,7.20
2017-11-27T11:09:37.233Z,7.20
2017-11-27T11:12:06.561Z,7.20
2017-11-27T11:14:35.832Z,7.30
2017-11-27T11:17:05.929Z,7.20
2017-11-27T11:19:35.203Z,7.10
2017-11-27T11:22:04.425Z,7.00
2017-11-27T11:24:33.678Z,7.10
2017-11-27T11:27:02.932Z,7.20
2017-11-27T11:29:32.184Z,7.20
2017-11-27T11:32:02.182Z,7.10
2017-11-27T11:34:31.465Z,7.10
2017-11-27T11:37:00.703Z,7.20
2017-11-27T11:39:29.932Z,7.20
2017-11-27T11:41:59.193Z,7.20
2017-11-27T11:44:28.486Z,7.20
2017-11-27T11:46:57.753Z,7.20
2017-11-27T11:49:27.001Z,7.30
2017-11-27T11:51:57.006Z,7.20
2017-11-27T11:54:26.271Z,7.20
2017-11-27T11:56:55.485Z,7.20
2017-11-27T11:59:24.788Z,7.30
2017-11-27T12:01:54.020Z,7.40
2017-11-27T12:04:24.084Z,7.30
2017-11-27T12:06:53.445Z,7.30
2017-11-27T12:09:24.261Z,7.30
2017-11-27T12:11:53.601Z,7.30
2017-11-27T12:14:22.896Z,7.40
2017-11-27T12:16:52.913Z,7.50
2017-11-27T12:19:22.151Z,7.50
2017-11-27T12:21:51.381Z,7.50
2017-11-27T12:24:20.637Z,7.50
2017-11-27T12:26:49.881Z,7.60
2017-11-27T12:29:19.114Z,7.50
2017-11-27T12:31:48.430Z,7.50
2017-11-27T12:34:17.726Z,7.50
2017-11-27T12:36:46.982Z,7.60
2017-11-27T12:39:16.240Z,7.60
2017-11-27T12:41:45.490Z,7.60
2017-11-27T12:44:14.773Z,7.70
2017-11-27T12:46:43.997Z,7.70
2017-11-27T12:49:14.013Z,7.70
2017-11-27T12:51:44.033Z,7.60
2017-11-27T12:54:14.024Z,7.60
2017-11-27T12:56:43.280Z,7.60
2017-11-27T12:59:12.548Z,7.60
2017-11-27T13:01:41.765Z,7.60
2017-11-27T13:04:11.796Z,7.70
2017-11-27T13:06:41.062Z,7.70
2017-11-27T13:09:10.289Z,7.60
2017-11-27T13:11:39.553Z,7.60
2017-11-27T13:14:08.836Z,7.50
2017-11-27T13:16:38.052Z,7.50
2017-11-27T13:19:07.287Z,7.50
2017-11-27T13:21:36.516Z,7.40
2017-11-27T13:24:06.557Z,7.40
2017-11-27T13:26:35.782Z,7.40
2017-11-27T13:29:05.817Z,7.40
2017-11-27T13:31:35.053Z,7.40
2017-11-27T13:34:05.125Z,7.40
2017-11-27T13:36:35.120Z,7.40
2017-11-27T13:39:04.521Z,7.40
2017-11-27T13:41:33.838Z,7.40
2017-11-27T13:44:03.054Z,7.40
2017-11-27T13:46:32.310Z,7.40
2017-11-27T13:49:01.579Z,7.50
2017-11-27T13:51:31.677Z,7.40
2017-11-27T13:54:01.017Z,7.30
2017-11-27T13:56:30.261Z,7.30
2017-11-27T13:59:00.749Z,7.30
2017-11-27T14:01:29.976Z,7.20
2017-11-27T14:03:59.277Z,7.20
2017-11-27T14:06:28.562Z,7.20
2017-11-27T14:08:57.903Z,7.10
2017-11-27T14:11:28.000Z,7.20
2017-11-27T14:13:57.230Z,7.20
2017-11-27T14:16:26.650Z,7.30
2017-11-27T14:18:55.921Z,7.30
2017-11-27T14:21:25.987Z,7.30
2017-11-27T14:23:56.042Z,7.40
2017-11-27T14:26:25.477Z,7.30
2017-11-27T14:28:55.493Z,7.40
2017-11-27T14:31:24.750Z,7.40
2017-11-27T14:33:53.980Z,7.40
2017-11-27T14:36:23.505Z,7.50
2017-11-27T14:38:52.823Z,7.40
2017-11-27T14:41:22.388Z,7.30
2017-11-27T14:43:52.416Z,7.20
2017-11-27T14:46:22.441Z,7.20
2017-11-27T14:48:51.833Z,7.20
2017-11-27T14:51:21.833Z,7.20
2017-11-27T14:53:51.162Z,7.20
2017-11-27T14:56:20.453Z,7.20
2017-11-27T14:58:50.450Z,7.10
2017-11-27T15:01:19.718Z,7.10
2017-11-27T15:03:48.948Z,7.20
2017-11-27T15:06:18.189Z,7.20
2017-11-27T15:08:47.673Z,7.20
2017-11-27T15:11:17.086Z,7.20
2017-11-27T15:13:47.099Z,7.20
2017-11-27T15:16:16.409Z,7.20
2017-11-27T15:18:45.639Z,7.20
2017-11-27T15:21:14.875Z,7.20
2017-11-27T15:23:44.149Z,7.30
2017-11-27T15:26:13.404Z,7.30
2017-11-27T15:28:42.657Z,7.30
2017-11-27T15:31:11.897Z,7.40
2017-11-27T15:33:41.913Z,7.70
2017-11-27T15:36:13.413Z,7.70
2017-11-27T15:38:43.738Z,7.70
2017-11-27T15:41:12.994Z,7.70
2017-11-27T15:43:44.889Z,7.70
2017-11-27T15:46:14.287Z,7.70
2017-11-27T15:48:43.500Z,7.80
2017-11-27T15:51:13.796Z,7.80
2017-11-27T15:53:43.034Z,7.80
2017-11-27T15:56:12.353Z,7.90
2017-11-27T15:58:41.597Z,7.90
2017-11-27T16:01:10.869Z,7.80
2017-11-27T16:03:40.113Z,7.80
2017-11-27T16:06:09.349Z,7.80
2017-11-27T16:08:38.581Z,7.60
2017-11-27T16:11:08.620Z,7.60
2017-11-27T16:13:37.848Z,7.60
2017-11-27T16:16:07.083Z,7.50
2017-11-27T16:18:36.337Z,7.50
2017-11-27T16:21:05.765Z,7.50
2017-11-27T16:23:34.998Z,7.60
2017-11-27T16:26:05.049Z,7.50
2017-11-27T16:28:34.309Z,7.50
2017-11-27T16:31:03.533Z,7.50
2017-11-27T16:33:32.772Z,7.50
2017-11-27T16:36:02.029Z,7.50
2017-11-27T16:38:31.294Z,7.50
2017-11-27T16:41:00.566Z,7.50
2017-11-27T16:43:29.834Z,7.50
2017-11-27T16:45:59.070Z,7.40
2017-11-27T16:48:28.298Z,7.40
2017-11-27T16:50:57.613Z,7.40
2017-11-27T16:53:27.672Z,7.50
2017-11-27T16:55:56.930Z,7.50
2017-11-27T16:58:26.339Z,7.40
2017-11-27T17:00:56.455Z,7.50
2017-11-27T17:03:25.841Z,7.50
2017-11-27T17:05:55.304Z,7.50
2017-11-27T17:08:27.016Z,7.50
2017-11-27T17:10:56.505Z,7.50
2017-11-27T17:13:26.930Z,7.40
2017-11-27T17:15:56.160Z,7.40
2017-11-27T17:18:25.436Z,7.40
2017-11-27T17:20:54.963Z,7.40
2017-11-27T17:23:24.231Z,7.30
2017-11-27T17:25:53.464Z,7.30
2017-11-27T17:28:23.481Z,7.20
2017-11-27T17:30:52.729Z,7.20
2017-11-27T17:33:22.217Z,7.20
2017-11-27T17:35:52.186Z,7.30
2017-11-27T17:38:21.488Z,7.30
2017-11-27T17:40:50.742Z,7.40
2017-11-27T17:43:19.977Z,7.40
2017-11-27T17:45:49.216Z,7.40
2017-11-27T17:48:18.490Z,7.40
2017-11-27T17:50:47.713Z,7.40
2017-11-27T17:53:16.978Z,7.30
2017-11-27T17:55:46.205Z,7.20
2017-11-27T17:58:15.429Z,7.30
2017-11-27T18:00:44.684Z,7.20
2017-11-27T18:03:14.687Z,7.20
2017-11-27T18:05:44.108Z,7.20
2017-11-27T18:08:14.110Z,7.20
2017-11-27T18:10:43.370Z,7.20
2017-11-27T18:13:12.608Z,7.20
2017-11-27T18:15:41.839Z,7.20
2017-11-27T18:18:11.093Z,7.20
2017-11-27T18:20:40.358Z,7.20
2017-11-27T18:23:09.592Z,7.30
2017-11-27T18:25:38.820Z,7.30
2017-11-27T18:28:08.145Z,7.30
2017-11-27T18:30:37.377Z,7.30
2017-11-27T18:33:06.610Z,7.30
2017-11-27T18:35:35.867Z,7.30
2017-11-27T18:38:05.094Z,7.30
2017-11-27T18:40:34.350Z,7.30
2017-11-27T18:43:03.592Z,7.30
2017-11-27T18:45:32.844Z,7.30
2017-11-27T18:48:02.109Z,7.30
2017-11-27T18:50:31.341Z,7.50
2017-11-27T18:53:00.584Z,7.60
2017-11-27T18:55:29.941Z,7.60
2017-11-27T18:57:59.177Z,7.70
2017-11-27T19:00:28.413Z,7.60
2017-11-27T19:02:57.677Z,7.60
2017-11-27T19:05:27.251Z,7.50
2017-11-27T19:07:57.038Z,7.40
2017-11-27T19:10:26.473Z,7.40
2017-11-27T19:12:55.718Z,7.40
2017-11-27T19:15:24.994Z,7.40
2017-11-27T19:17:54.231Z,7.40
2017-11-27T19:20:23.538Z,7.50
2017-11-27T19:22:54.318Z,7.40
2017-11-27T19:25:24.778Z,7.30
2017-11-27T19:27:54.205Z,7.30
2017-11-27T19:30:23.441Z,7.30
2017-11-27T19:32:52.684Z,7.30
2017-11-27T19:35:21.941Z,7.20
2017-11-27T19:37:51.166Z,7.30
2017-11-27T19:40:20.838Z,7.20
2017-11-27T19:42:50.118Z,7.20
2017-11-27T19:45:19.344Z,7.20
2017-11-27T19:47:48.593Z,7.20
2017-11-27T19:50:17.839Z,7.20
2017-11-27T19:52:47.828Z,7.10
2017-11-27T19:55:17.859Z,7.10
2017-11-27T19:57:47.856Z,7.10
2017-11-27T20:00:17.173Z,7.10
2017-11-27T20:02:46.427Z,7.10
2017-11-27T20:05:15.656Z,7.10
2017-11-27T20:07:44.961Z,7.10
2017-11-27T20:10:14.261Z,7.10
2017-11-27T20:12:43.506Z,7.10
2017-11-27T20:15:12.741Z,7.00
2017-11-27T20:17:41.981Z,7.10
2017-11-27T20:20:11.249Z,7.00
2017-11-27T20:22:41.477Z,7.10
2017-11-27T20:25:11.787Z,7.20
2017-11-27T20:27:43.591Z,7.30
2017-11-27T20:30:13.751Z,7.30
2017-11-27T20:32:43.150Z,7.30
2017-11-27T20:35:12.405Z,7.30
2017-11-27T20:37:42.422Z,7.40
2017-11-27T20:40:12.438Z,7.40
2017-11-27T20:42:42.470Z,7.50
2017-11-27T20:45:11.696Z,7.50
2017-11-27T20:47:40.933Z,7.40
2017-11-27T20:50:10.189Z,7.30
2017-11-27T20:52:39.424Z,7.40
2017-11-27T20:55:08.665Z,7.40
2017-11-27T20:57:38.677Z,7.30
2017-11-27T21:00:08.683Z,7.30
2017-11-27T21:02:37.928Z,7.30
2017-11-27T21:05:07.938Z,7.30
2017-11-27T21:07:37.185Z,7.30
2017-11-27T21:10:06.425Z,7.30
2017-11-27T21:12:35.688Z,7.30
2017-11-27T21:15:04.928Z,7.40
2017-11-27T21:17:34.158Z,7.30
2017-11-27T21:20:03.404Z,7.30
2017-11-27T21:22:33.402Z,7.50
2017-11-27T21:25:02.642Z,7.50
2017-11-27T21:27:31.884Z,7.40
2017-11-27T21:30:01.110Z,7.40
2017-11-27T21:32:30.359Z,7.30
2017-11-27T21:34:59.607Z,7.30
2017-11-27T21:37:28.862Z,7.30
2017-11-27T21:39:58.136Z,7.30
2017-11-27T21:42:27.373Z,7.30
2017-11-27T21:44:56.618Z,7.30
2017-11-27T21:47:25.865Z,7.20
2017-11-27T21:49:55.109Z,7.30
2017-11-27T21:52:24.336Z,7.20
2017-11-27T21:54:53.581Z,7.20
2017-11-27T21:57:22.808Z,7.30
2017-11-27T21:59:52.054Z,7.30
2017-11-27T22:02:21.408Z,7.30
2017-11-27T22:04:50.659Z,7.30
2017-11-27T22:07:19.905Z,7.30
2017-11-27T22:09:49.137Z,7.30
2017-11-27T22:12:18.692Z,7.30
2017-11-27T22:14:47.929Z,7.30
2017-11-27T22:17:17.945Z,7.30
2017-11-27T22:19:47.986Z,7.30
2017-11-27T22:22:17.249Z,7.20
2017-11-27T22:24:46.477Z,7.30
2017-11-27T22:27:15.725Z,7.30
2017-11-27T22:29:44.957Z,7.20
2017-11-27T22:32:14.961Z,7.20
2017-11-27T22:34:44.211Z,7.20
2017-11-27T22:37:13.445Z,7.20
2017-11-27T22:39:42.687Z,7.20
2017-11-27T22:42:12.701Z,7.10
2017-11-27T22:44:42.703Z,7.00
2017-11-27T22:47:11.928Z,7.00
2017-11-27T22:49:41.186Z,6.90
2017-11-27T22:52:10.416Z,6.90
2017-11-27T22:54:40.444Z,6.90
2017-11-27T22:57:10.465Z,6.80
2017-11-27T22:59:39.704Z,6.80
2017-11-27T23:02:08.948Z,6.90
2017-11-27T23:04:38.966Z,6.90
2017-11-27T23:07:08.968Z,6.90
2017-11-27T23:09:38.209Z,6.90
2017-11-27T23:12:07.477Z,7.00
2017-11-27T23:14:37.496Z,6.90
2017-11-27T23:17:07.516Z,6.90
2017-11-27T23:19:37.513Z,6.80
2017-11-27T23:22:06.765Z,6.80
2017-11-27T23:24:36.000Z,6.80
2017-11-27T23:27:05.236Z,6.80
2017-11-27T23:29:35.263Z,6.80
2017-11-27T23:32:05.272Z,6.90
2017-11-27T23:34:35.290Z,6.80
2017-11-27T23:37:05.290Z,6.80
2017-11-27T23:39:34.523Z,6.80
2017-11-27T23:42:03.794Z,6.80
2017-11-27T23:44:33.026Z,6.90
2017-11-27T23:47:02.269Z,6.90
2017-11-27T23:49:31.548Z,7.00
2017-11-27T23:52:00.787Z,6.90
2017-11-27T23:54:30.023Z,6.90
2017-11-27T23:56:59.261Z,7.00
2017-11-27T23:59:28.495Z,6.80
